Marrowbone, Kentucky
Current Conditions -  °F | °C
As of 12:15 PM on Monday 26 Jan 2015 (Local Time) from KGLW Reporting Station
Overcast Overcast  
Wind Chill: 24°   Ceiling: 1500
Heat Index: 31°   Visibility: 10mi
Dew Point: 26°   Wind: 8mph
Humidity: 82%   Direction: 290°WNW
Pressure: 29.97"   Gusts: NA
Location:  36.83°N, 85.51°W
Report Text: KGLW 261815Z AUTO 29007KT 10SM OVC015 00/M03 A2997 RMK AO2 T10051033
Loading
Personal Weather Stations






























Interactive Weather Map New forecast layout! Learn more

10-Day Weather Forecast

Advertisements
Track Severe Weather on mobile